Letts, Iowa
Current Conditions -  °F | °C
As of 9:35 AM on Friday 28 Nov 2014 (Local Time) from KMUT Reporting Station
Few Clouds Few Clouds  
Wind Chill: 13°   Ceiling: Unl
Heat Index: 23°   Visibility: 10mi
Dew Point: 18°   Wind: 9mph
Humidity: 80%   Direction: 140°SE
Pressure: 30.09"   Gusts: 15mph
Location:  41.33°N, 91.24°W
Report Text: KMUT 281535Z AUTO 14008G13KT 10SM FEW120 M05/M08 A3009 RMK AO2
Loading
Personal Weather Stations






























Interactive Weather Map New forecast layout! Learn more

10-Day Weather Forecast

Advertisements
Track Severe Weather on mobile